createdAt,value
2019-05-03T00:00:58.712Z,8.43
2019-05-03T00:03:28.641Z,6.03
2019-05-03T00:06:03.118Z,8.48
2019-05-03T00:08:33.687Z,11.48
2019-05-03T00:11:04.161Z,5.87
2019-05-03T00:13:35.550Z,5.90
2019-05-03T00:16:09.819Z,4.43
2019-05-03T00:18:42.089Z,9.18
2019-05-03T00:21:12.191Z,5.62
2019-05-03T00:23:42.615Z,6.33
2019-05-03T00:26:12.619Z,5.83
2019-05-03T00:28:42.762Z,6.85
2019-05-03T00:31:12.970Z,5.17
2019-05-03T00:33:44.979Z,6.85
2019-05-03T00:36:22.490Z,7.40
2019-05-03T00:38:54.245Z,5.62
2019-05-03T00:41:24.663Z,6.47
2019-05-03T00:43:55.247Z,10.10
2019-05-03T00:46:25.610Z,7.78
2019-05-03T00:48:55.973Z,6.35
2019-05-03T00:51:25.994Z,5.58
2019-05-03T00:53:56.130Z,5.95
2019-05-03T00:56:26.123Z,7.30
2019-05-03T00:58:58.085Z,6.30
2019-05-03T01:01:27.914Z,6.20
2019-05-03T01:03:58.162Z,6.40
2019-05-03T01:06:28.365Z,7.60
2019-05-03T01:08:58.431Z,6.53
2019-05-03T01:11:28.625Z,7.42
2019-05-03T01:13:58.640Z,12.13
2019-05-03T01:16:28.501Z,8.85
2019-05-03T01:18:58.642Z,6.87
2019-05-03T01:21:28.849Z,6.65
2019-05-03T01:23:59.216Z,6.20
2019-05-03T01:26:29.086Z,6.15
2019-05-03T01:29:00.153Z,7.53
2019-05-03T01:31:31.892Z,9.75
2019-05-03T01:34:02.418Z,7.15
2019-05-03T01:36:32.710Z,6.50
2019-05-03T01:39:02.753Z,6.53
2019-05-03T01:41:34.539Z,9.00
2019-05-03T01:44:05.693Z,6.80
2019-05-03T01:46:36.233Z,7.37
2019-05-03T01:49:07.852Z,7.22
2019-05-03T01:51:39.393Z,7.62
2019-05-03T01:54:09.323Z,10.43
2019-05-03T01:56:39.261Z,8.53
2019-05-03T01:59:09.427Z,8.08
2019-05-03T02:01:43.684Z,9.28
2019-05-03T02:04:32.231Z,7.15
2019-05-03T02:07:02.582Z,8.05
2019-05-03T02:09:32.558Z,9.70
2019-05-03T02:12:02.661Z,8.10
2019-05-03T02:14:32.859Z,7.90
2019-05-03T02:17:03.035Z,9.50
2019-05-03T02:19:33.424Z,9.03
2019-05-03T02:22:03.478Z,9.48
2019-05-03T02:24:33.477Z,10.70
2019-05-03T02:27:03.730Z,12.13
2019-05-03T02:29:33.978Z,10.05
2019-05-03T02:32:04.185Z,12.03
2019-05-03T02:34:34.595Z,11.45
2019-05-03T02:37:04.815Z,10.65
2019-05-03T02:39:35.325Z,10.32
2019-05-03T02:42:10.288Z,8.78
2019-05-03T02:44:38.557Z,9.10
2019-05-03T02:47:15.766Z,10.43
2019-05-03T02:49:47.027Z,10.65
2019-05-03T02:52:36.405Z,10.25
2019-05-03T02:55:10.006Z,8.53
2019-05-03T02:57:40.298Z,12.55
2019-05-03T03:00:15.994Z,11.78
2019-05-03T03:02:45.721Z,9.85
2019-05-03T03:05:16.821Z,13.50
2019-05-03T03:07:49.345Z,7.97
2019-05-03T03:12:55.135Z,8.68
2019-05-03T03:15:26.223Z,10.65
2019-05-03T03:17:59.370Z,9.53
2019-05-03T03:20:30.603Z,7.55
2019-05-03T03:23:06.001Z,12.37
2019-05-03T03:25:39.558Z,10.40
2019-05-03T03:28:12.716Z,8.73
2019-05-03T03:31:08.284Z,10.05
2019-05-03T03:33:40.324Z,8.73
2019-05-03T03:36:37.561Z,6.72
2019-05-03T03:38:42.463Z,9.30
2019-05-03T03:41:16.374Z,8.73
2019-05-03T03:43:48.544Z,8.93
2019-05-03T03:46:20.265Z,8.05
2019-05-03T03:48:55.376Z,8.25
2019-05-03T03:51:26.270Z,8.85
2019-05-03T03:53:59.907Z,8.30
2019-05-03T03:56:32.661Z,7.45
2019-05-03T03:59:05.778Z,8.65
2019-05-03T04:01:35.509Z,8.85
2019-05-03T04:04:08.760Z,12.55
2019-05-03T04:06:41.983Z,9.38
2019-05-03T04:09:12.143Z,6.80
2019-05-03T04:11:42.593Z,10.40
2019-05-03T04:14:16.174Z,16.82
2019-05-03T04:17:06.896Z,8.25
2019-05-03T04:19:38.709Z,8.18
2019-05-03T04:22:08.920Z,11.08
2019-05-03T04:24:38.965Z,10.58
2019-05-03T04:27:18.527Z,8.60
2019-05-03T04:29:41.913Z,8.88
2019-05-03T04:32:15.424Z,11.15
2019-05-03T04:34:45.320Z,7.92
2019-05-03T04:37:16.537Z,8.73
2019-05-03T04:39:48.131Z,10.95
2019-05-03T04:42:18.687Z,10.00
2019-05-03T04:44:48.854Z,8.35
2019-05-03T04:47:19.147Z,8.48
2019-05-03T04:49:49.334Z,8.63
2019-05-03T04:52:19.291Z,7.00
2019-05-03T04:54:51.062Z,11.68
2019-05-03T04:57:39.267Z,12.75
2019-05-03T04:59:55.842Z,11.60
2019-05-03T05:02:26.244Z,11.55
2019-05-03T05:04:56.841Z,9.80
2019-05-03T05:07:27.273Z,9.70
2019-05-03T05:09:57.121Z,12.93
2019-05-03T05:12:27.299Z,11.95
2019-05-03T05:14:58.499Z,13.60
2019-05-03T05:17:36.633Z,12.25
2019-05-03T05:20:08.645Z,16.42
2019-05-03T05:22:38.809Z,13.38
2019-05-03T05:25:10.689Z,12.80
2019-05-03T05:27:58.587Z,12.05
2019-05-03T05:30:29.101Z,10.40
2019-05-03T05:32:59.453Z,13.53
2019-05-03T05:35:29.880Z,9.48
2019-05-03T05:37:59.871Z,12.05
2019-05-03T05:40:29.914Z,12.50
2019-05-03T05:43:00.224Z,13.20
2019-05-03T05:45:30.250Z,11.40
2019-05-03T05:48:02.338Z,9.95
2019-05-03T05:50:34.640Z,14.00
2019-05-03T05:53:05.098Z,9.38
2019-05-03T05:55:54.824Z,10.90
2019-05-03T05:58:32.188Z,8.28
2019-05-03T06:01:05.495Z,10.28
2019-05-03T06:03:35.538Z,10.58
2019-05-03T06:06:07.432Z,8.38
2019-05-03T06:08:39.153Z,14.78
2019-05-03T06:11:14.881Z,13.65
2019-05-03T06:13:55.753Z,12.25
2019-05-03T06:16:30.568Z,14.18
2019-05-03T06:19:08.160Z,10.65
2019-05-03T06:21:39.627Z,7.33
2019-05-03T06:24:20.474Z,13.25
2019-05-03T06:26:52.135Z,8.30
2019-05-03T06:29:22.185Z,12.33
2019-05-03T06:31:57.631Z,8.58
2019-05-03T06:34:28.179Z,11.18
2019-05-03T06:37:04.469Z,9.40
2019-05-03T06:39:35.279Z,11.40
2019-05-03T06:42:05.362Z,11.97
2019-05-03T06:44:37.259Z,10.58
2019-05-03T06:47:10.454Z,11.60
2019-05-03T06:49:43.710Z,10.72
2019-05-03T06:52:10.802Z,13.22
2019-05-03T06:54:41.151Z,10.45
2019-05-03T06:57:14.685Z,12.05
2019-05-03T06:59:46.049Z,9.23
2019-05-03T07:02:18.029Z,14.23
2019-05-03T07:04:49.644Z,6.67
2019-05-03T07:07:21.494Z,11.63
2019-05-03T07:10:06.441Z,12.10
2019-05-03T07:12:54.657Z,10.08
2019-05-03T07:15:25.406Z,8.98
2019-05-03T07:17:55.815Z,17.07
2019-05-03T07:20:26.334Z,12.20
2019-05-03T07:22:56.575Z,16.37
2019-05-03T07:25:26.654Z,13.53
2019-05-03T07:27:57.919Z,14.05
2019-05-03T07:30:27.964Z,14.13
2019-05-03T07:33:00.547Z,9.08
2019-05-03T07:35:30.535Z,9.50
2019-05-03T07:38:01.075Z,14.13
2019-05-03T07:40:31.185Z,9.20
2019-05-03T07:43:01.323Z,8.25
2019-05-03T07:45:31.367Z,7.90
2019-05-03T07:48:01.285Z,6.78
2019-05-03T07:50:33.372Z,8.55
2019-05-03T07:53:04.723Z,8.18
2019-05-03T07:55:55.169Z,11.05
2019-05-03T07:58:26.692Z,9.53
2019-05-03T08:01:06.055Z,9.23
2019-05-03T08:03:32.180Z,6.87
2019-05-03T08:06:07.479Z,8.43
2019-05-03T08:08:47.918Z,12.58
2019-05-03T08:11:21.079Z,7.90
2019-05-03T08:13:51.151Z,9.38
2019-05-03T08:16:21.290Z,9.33
2019-05-03T08:18:55.918Z,8.53
2019-05-03T08:21:28.020Z,7.08
2019-05-03T08:23:58.300Z,9.38
2019-05-03T08:26:28.720Z,7.10
2019-05-03T08:29:13.382Z,6.05
2019-05-03T08:31:38.101Z,6.95
2019-05-03T08:34:15.150Z,6.60
2019-05-03T08:36:58.289Z,7.58
2019-05-03T08:39:28.379Z,12.70
2019-05-03T08:42:01.881Z,6.80
2019-05-03T08:44:36.516Z,9.85
2019-05-03T08:47:07.812Z,9.65
2019-05-03T08:49:38.004Z,5.08
2019-05-03T08:52:08.309Z,6.53
2019-05-03T08:54:40.522Z,7.75
2019-05-03T08:59:54.963Z,7.55
2019-05-03T09:02:27.966Z,4.72
2019-05-03T09:05:06.037Z,12.33
2019-05-03T09:07:37.645Z,6.45
2019-05-03T09:10:12.611Z,7.83
2019-05-03T09:12:58.940Z,6.35
2019-05-03T09:15:29.259Z,4.00
2019-05-03T09:18:04.936Z,5.37
2019-05-03T09:20:36.804Z,6.37
2019-05-03T09:23:07.549Z,10.30
2019-05-03T09:25:39.363Z,5.62
2019-05-03T09:28:11.131Z,6.95
2019-05-03T09:30:44.728Z,8.45
2019-05-03T09:33:17.852Z,6.90
2019-05-03T09:35:50.961Z,6.15
2019-05-03T09:38:22.608Z,5.20
2019-05-03T09:40:54.580Z,5.25
2019-05-03T09:45:55.183Z,3.55
2019-05-03T09:48:25.677Z,4.42
2019-05-03T09:50:55.799Z,3.50
2019-05-03T09:53:27.550Z,3.98
2019-05-03T09:55:57.860Z,5.87
2019-05-03T09:58:27.911Z,3.27
2019-05-03T10:00:57.940Z,6.60
2019-05-03T10:03:28.307Z,6.42
2019-05-03T10:05:58.209Z,5.17
2019-05-03T10:08:28.330Z,5.15
2019-05-03T10:11:10.246Z,5.92
2019-05-03T10:13:41.981Z,8.03
2019-05-03T10:16:12.294Z,5.92
2019-05-03T10:18:42.401Z,7.17
2019-05-03T10:21:14.677Z,5.90
2019-05-03T10:23:45.187Z,8.40
2019-05-03T10:26:15.837Z,9.70
2019-05-03T10:28:46.242Z,5.22
2019-05-03T10:31:16.327Z,2.58
2019-05-03T10:34:00.812Z,5.15
2019-05-03T10:36:31.317Z,3.00
2019-05-03T10:39:01.666Z,6.50
2019-05-03T10:41:34.758Z,5.42
2019-05-03T10:44:06.109Z,6.50
2019-05-03T10:46:36.227Z,6.00
2019-05-03T10:49:06.558Z,5.08
2019-05-03T10:51:38.340Z,3.30
2019-05-03T10:54:08.667Z,4.60
2019-05-03T10:56:50.245Z,2.62
2019-05-03T10:59:21.571Z,4.12
2019-05-03T11:01:54.520Z,3.07
2019-05-03T11:04:24.950Z,5.72
2019-05-03T11:06:55.230Z,3.70
2019-05-03T11:09:26.072Z,2.85
2019-05-03T11:11:56.766Z,4.12
2019-05-03T11:14:26.860Z,4.22
2019-05-03T11:16:56.933Z,4.37
2019-05-03T11:19:27.144Z,4.00
2019-05-03T11:21:57.210Z,3.30
2019-05-03T11:24:27.643Z,2.37
2019-05-03T11:27:00.224Z,3.05
2019-05-03T11:29:30.671Z,1.87
2019-05-03T11:32:08.311Z,1.92
2019-05-03T11:34:52.691Z,2.60
2019-05-03T11:37:41.531Z,2.85
2019-05-03T11:40:11.761Z,1.65
2019-05-03T11:42:41.686Z,4.75
2019-05-03T11:45:15.195Z,3.42
2019-05-03T11:47:47.135Z,3.77
2019-05-03T11:50:19.113Z,3.87
2019-05-03T11:52:49.296Z,5.00
2019-05-03T11:55:19.666Z,4.00
2019-05-03T11:57:53.222Z,3.00
2019-05-03T12:00:26.833Z,1.90
2019-05-03T12:03:07.691Z,2.47
2019-05-03T12:05:37.737Z,4.85
2019-05-03T12:08:07.664Z,6.50
2019-05-03T12:10:52.345Z,3.27
2019-05-03T12:13:19.819Z,11.95
2019-05-03T12:15:49.848Z,8.25
2019-05-03T12:18:20.380Z,3.72
2019-05-03T12:20:51.824Z,5.30
2019-05-03T12:23:25.375Z,3.37
2019-05-03T12:25:54.823Z,14.43
2019-05-03T12:28:25.804Z,5.97
2019-05-03T12:30:56.326Z,16.93
2019-05-03T12:33:26.765Z,12.35
2019-05-03T12:35:56.791Z,5.50
2019-05-03T12:38:27.728Z,6.90
2019-05-03T12:40:57.887Z,7.87
2019-05-03T12:43:28.016Z,3.25
2019-05-03T12:45:58.223Z,5.25
2019-05-03T12:48:36.869Z,5.25
2019-05-03T12:51:08.703Z,3.75
2019-05-03T12:53:42.661Z,3.47
2019-05-03T12:56:22.761Z,3.80
2019-05-03T12:58:55.290Z,3.60
2019-05-03T13:01:41.015Z,5.40
2019-05-03T13:04:07.008Z,2.95
2019-05-03T13:06:38.608Z,4.67
2019-05-03T13:09:12.846Z,8.35
2019-05-03T13:11:53.000Z,4.75
2019-05-03T13:14:17.577Z,5.97
2019-05-03T13:16:51.131Z,4.37
2019-05-03T13:19:22.606Z,3.83
2019-05-03T13:21:55.426Z,6.55
2019-05-03T13:24:28.948Z,3.22
2019-05-03T13:26:59.223Z,3.77
2019-05-03T13:29:29.376Z,3.05
2019-05-03T13:32:02.176Z,3.35
2019-05-03T13:37:03.350Z,2.83
2019-05-03T13:39:35.919Z,2.17
2019-05-03T13:42:06.389Z,4.30
2019-05-03T13:44:38.406Z,4.25
2019-05-03T13:47:08.766Z,4.10
2019-05-03T13:49:45.003Z,3.90
2019-05-03T13:52:16.217Z,6.20
2019-05-03T13:54:47.886Z,5.03
2019-05-03T13:57:18.687Z,5.65
2019-05-03T13:59:48.894Z,2.50
2019-05-03T14:02:20.379Z,5.27
2019-05-03T14:04:53.000Z,6.33
2019-05-03T14:07:24.881Z,3.63
2019-05-03T14:09:55.662Z,4.37
2019-05-03T14:12:26.040Z,6.80
2019-05-03T14:14:56.607Z,6.10
2019-05-03T14:17:29.284Z,7.22
2019-05-03T14:20:00.959Z,7.12
2019-05-03T14:22:33.029Z,7.83
2019-05-03T14:25:04.584Z,5.75
2019-05-03T14:27:34.935Z,4.17
2019-05-03T14:30:07.914Z,7.33
2019-05-03T14:32:38.221Z,4.42
2019-05-03T14:35:16.332Z,4.03
2019-05-03T14:37:48.132Z,3.95
2019-05-03T14:40:21.290Z,5.20
2019-05-03T14:42:55.658Z,4.10
2019-05-03T14:45:32.373Z,3.98
2019-05-03T14:48:02.553Z,4.42
2019-05-03T14:50:35.527Z,3.92
2019-05-03T14:53:06.008Z,3.42
2019-05-03T14:55:45.261Z,5.40
2019-05-03T14:58:36.350Z,7.45
2019-05-03T15:01:10.720Z,5.97
2019-05-03T15:03:41.026Z,7.17
2019-05-03T15:06:15.509Z,6.28
2019-05-03T15:08:52.158Z,7.72
2019-05-03T15:11:22.438Z,7.95
2019-05-03T15:13:54.919Z,6.33
2019-05-03T15:16:25.052Z,7.45
2019-05-03T15:18:55.787Z,11.38
2019-05-03T15:21:26.419Z,5.33
2019-05-03T15:23:56.903Z,8.63
2019-05-03T15:26:27.105Z,7.10
2019-05-03T15:28:57.303Z,6.75
2019-05-03T15:31:28.666Z,4.92
2019-05-03T15:33:58.773Z,6.28
2019-05-03T15:36:32.566Z,5.97
2019-05-03T15:39:07.809Z,5.97
2019-05-03T15:41:40.095Z,4.35
2019-05-03T15:44:28.117Z,7.37
2019-05-03T15:47:02.424Z,6.20
2019-05-03T15:49:32.755Z,5.75
2019-05-03T15:52:04.587Z,9.30
2019-05-03T15:54:35.295Z,6.45
2019-05-03T15:57:09.841Z,8.30
2019-05-03T15:59:45.258Z,5.08
2019-05-03T16:02:15.377Z,5.28
2019-05-03T16:04:45.394Z,9.70
2019-05-03T16:07:15.684Z,6.55
2019-05-03T16:09:46.089Z,7.60
2019-05-03T16:12:16.258Z,9.20
2019-05-03T16:14:46.313Z,8.70
2019-05-03T16:17:16.681Z,7.10
2019-05-03T16:19:47.716Z,8.85
2019-05-03T16:22:19.878Z,9.20
2019-05-03T16:24:50.098Z,6.58
2019-05-03T16:27:21.792Z,6.17
2019-05-03T16:29:52.170Z,5.80
2019-05-03T16:32:22.593Z,3.50
2019-05-03T16:34:54.993Z,4.72
2019-05-03T16:37:25.480Z,10.82
2019-05-03T16:39:57.830Z,10.75
2019-05-03T16:42:28.604Z,8.28
2019-05-03T16:44:59.108Z,5.25
2019-05-03T16:47:29.304Z,11.45
2019-05-03T16:50:02.354Z,11.70
2019-05-03T16:52:32.379Z,9.25
2019-05-03T16:55:02.662Z,20.37
2019-05-03T16:57:35.264Z,11.48
2019-05-03T17:02:36.445Z,6.37
2019-05-03T17:05:15.897Z,4.70
2019-05-03T17:07:50.321Z,5.17
2019-05-03T17:10:25.495Z,4.78
2019-05-03T17:12:57.015Z,5.45
2019-05-03T17:15:27.350Z,6.77
2019-05-03T17:17:57.281Z,8.70
2019-05-03T17:20:28.017Z,6.85
2019-05-03T17:22:58.281Z,4.78
2019-05-03T17:25:28.897Z,6.85
2019-05-03T17:27:59.317Z,4.25
2019-05-03T17:30:33.898Z,4.67
2019-05-03T17:33:01.102Z,7.95
2019-05-03T17:35:31.224Z,6.53
2019-05-03T17:38:01.712Z,5.12
2019-05-03T17:40:49.486Z,10.08
2019-05-03T17:43:23.506Z,7.42
2019-05-03T17:45:59.522Z,5.05
2019-05-03T17:48:29.510Z,6.15
2019-05-03T17:50:59.860Z,5.80
2019-05-03T17:53:31.405Z,7.53
2019-05-03T17:56:05.686Z,14.73
2019-05-03T17:58:37.362Z,20.90
2019-05-03T18:01:11.849Z,15.80
2019-05-03T18:03:44.914Z,17.67
2019-05-03T18:06:16.922Z,19.90
2019-05-03T18:08:57.364Z,22.20
2019-05-03T18:11:31.771Z,25.40
2019-05-03T18:14:01.879Z,28.05
2019-05-03T18:16:32.025Z,31.30
2019-05-03T18:19:02.109Z,31.60
2019-05-03T18:21:32.283Z,29.77
2019-05-03T18:24:02.513Z,24.15
2019-05-03T18:26:32.768Z,39.23
2019-05-03T18:29:02.880Z,45.67
2019-05-03T18:31:33.090Z,33.05
2019-05-03T18:34:05.040Z,27.87
2019-05-03T18:36:34.817Z,25.50
2019-05-03T18:39:08.693Z,26.48
2019-05-03T18:41:40.105Z,32.88
2019-05-03T18:44:27.678Z,32.30
2019-05-03T18:46:59.351Z,21.45
2019-05-03T18:49:30.784Z,13.83
2019-05-03T18:52:00.870Z,12.33
2019-05-03T18:54:30.753Z,13.40
2019-05-03T18:57:01.170Z,11.90
2019-05-03T18:59:32.855Z,10.70
2019-05-03T19:02:02.924Z,10.63
2019-05-03T19:04:45.293Z,11.65
2019-05-03T19:07:30.071Z,10.43
2019-05-03T19:10:01.772Z,10.78
2019-05-03T19:12:45.795Z,14.28
2019-05-03T19:15:16.058Z,15.88
2019-05-03T19:17:54.752Z,10.35
2019-05-03T19:20:24.879Z,12.18
2019-05-03T19:22:55.370Z,8.05
2019-05-03T19:25:25.668Z,7.75
2019-05-03T19:27:56.135Z,9.40
2019-05-03T19:30:26.204Z,13.13
2019-05-03T19:32:56.624Z,6.92
2019-05-03T19:35:27.594Z,10.95
2019-05-03T19:37:58.290Z,9.63
2019-05-03T19:40:28.510Z,15.78
2019-05-03T19:43:05.139Z,11.55
2019-05-03T19:45:35.329Z,16.07
2019-05-03T19:48:06.026Z,19.37
2019-05-03T19:50:36.646Z,16.30
2019-05-03T19:53:14.608Z,19.75
2019-05-03T19:55:50.363Z,14.07
2019-05-03T20:01:10.546Z,12.40
2019-05-03T20:06:45.131Z,28.05
2019-05-03T20:09:28.711Z,30.05
2019-05-03T20:12:00.056Z,31.87
2019-05-03T20:14:30.027Z,34.63
2019-05-03T20:16:59.968Z,33.48
2019-05-03T20:19:29.987Z,33.48
2019-05-03T20:22:00.258Z,36.03
2019-05-03T20:24:30.908Z,37.60
2019-05-03T20:27:01.341Z,48.52
2019-05-03T20:29:34.411Z,34.70
2019-05-03T20:32:05.772Z,31.30
2019-05-03T20:34:36.587Z,21.35
2019-05-03T20:37:06.896Z,24.57
2019-05-03T20:39:37.014Z,23.32
2019-05-03T20:42:07.415Z,25.70
2019-05-03T20:44:40.607Z,22.17
2019-05-03T20:47:15.025Z,19.85
2019-05-03T20:49:47.775Z,18.10
2019-05-03T20:52:17.906Z,17.77
2019-05-03T20:54:48.006Z,14.83
2019-05-03T20:57:18.217Z,14.43
2019-05-03T20:59:52.047Z,10.58
2019-05-03T21:02:22.357Z,14.53
2019-05-03T21:04:52.428Z,15.50
2019-05-03T21:07:22.654Z,18.87
2019-05-03T21:09:54.738Z,17.25
2019-05-03T21:12:25.232Z,15.78
2019-05-03T21:14:55.687Z,15.25
2019-05-03T21:17:30.506Z,20.23
2019-05-03T21:20:02.116Z,14.25
2019-05-03T21:22:35.373Z,17.67
2019-05-03T21:25:09.104Z,12.35
2019-05-03T21:27:39.137Z,11.75
2019-05-03T21:30:09.982Z,13.75
2019-05-03T21:32:40.040Z,9.93
2019-05-03T21:35:10.203Z,8.78
2019-05-03T21:37:45.304Z,11.20
2019-05-03T21:40:16.359Z,11.63
2019-05-03T21:42:46.430Z,10.45
2019-05-03T21:45:18.218Z,15.53
2019-05-03T21:47:50.663Z,14.03
2019-05-03T21:50:21.766Z,14.43
2019-05-03T21:52:51.828Z,18.35
2019-05-03T21:55:22.268Z,28.30
2019-05-03T21:57:52.720Z,22.17
2019-05-03T22:00:24.797Z,19.52
2019-05-03T22:02:56.755Z,17.73
2019-05-03T22:05:27.136Z,16.10
2019-05-03T22:07:57.300Z,18.23
2019-05-03T22:10:27.293Z,18.80
2019-05-03T22:12:57.471Z,24.35
2019-05-03T22:15:41.199Z,29.77
2019-05-03T22:18:15.219Z,21.62
2019-05-03T22:20:47.113Z,21.17
2019-05-03T22:23:27.990Z,25.97
2019-05-03T22:25:58.051Z,19.77
2019-05-03T22:28:28.166Z,21.73
2019-05-03T22:30:59.270Z,23.00
2019-05-03T22:33:29.250Z,23.55
2019-05-03T22:36:08.754Z,20.40
2019-05-03T22:38:36.356Z,23.27
2019-05-03T22:41:05.729Z,30.88
2019-05-03T22:43:35.905Z,24.77
2019-05-03T22:46:06.275Z,19.67
2019-05-03T22:48:37.394Z,23.50
2019-05-03T22:51:07.584Z,18.92
2019-05-03T22:53:38.021Z,19.07
2019-05-03T22:56:07.949Z,21.87
2019-05-03T22:58:38.120Z,21.82
2019-05-03T23:01:08.154Z,21.25
2019-05-03T23:03:44.829Z,24.52
2019-05-03T23:06:22.038Z,22.48
2019-05-03T23:08:47.186Z,23.52
2019-05-03T23:11:17.684Z,21.25
2019-05-03T23:13:49.337Z,20.97
2019-05-03T23:16:19.323Z,19.85
2019-05-03T23:18:50.437Z,22.60
2019-05-03T23:21:25.285Z,20.60
2019-05-03T23:23:55.273Z,22.37
2019-05-03T23:26:25.596Z,24.35
2019-05-03T23:28:56.155Z,21.50
2019-05-03T23:31:26.234Z,20.08
2019-05-03T23:33:56.586Z,16.32
2019-05-03T23:36:33.081Z,23.00
2019-05-03T23:38:58.748Z,19.27
2019-05-03T23:41:29.210Z,19.55
2019-05-03T23:43:59.499Z,23.62
2019-05-03T23:46:31.369Z,26.48
2019-05-03T23:49:02.595Z,25.10
2019-05-03T23:51:49.440Z,21.33
2019-05-03T23:54:20.042Z,32.58
2019-05-03T23:56:50.453Z,28.83
2019-05-03T23:59:21.139Z,23.02
